Time;durP1;ratioP1;P1;durP2;ratioP2;P2;SDS_P1;SDS_P2;PMS_P1;PMS_P2;Temp;Humidity;BMP_temperature;BMP_pressure;BME280_temperature;BME280_humidity;BME280_pressure;Samples;Min_cycle;Max_cycle;Signal;HPM_P1;HPM_P2
2021/07/12 00:02:21;;;;;;;10.10;9.20;;;19.90;99.90;;;;;;4993980;28;20022;-30
2021/07/12 00:04:47;;;;;;;10.60;9.50;;;19.80;99.90;;;;;;4992524;28;20037;-30
2021/07/12 00:07:12;;;;;;;10.48;9.48;;;19.80;99.90;;;;;;4992715;28;20027;-31
2021/07/12 00:09:38;;;;;;;13.30;10.45;;;19.70;99.90;;;;;;4993658;28;20037;-31
2021/07/12 00:12:04;;;;;;;11.60;10.45;;;19.70;99.90;;;;;;4991949;28;20014;-31
2021/07/12 00:14:30;;;;;;;10.85;9.85;;;19.70;99.90;;;;;;4992739;28;20169;-31
2021/07/12 00:16:56;;;;;;;12.93;11.50;;;19.70;99.90;;;;;;4992249;28;20470;-31
2021/07/12 00:19:21;;;;;;;11.48;10.38;;;19.70;99.90;;;;;;4993760;28;20026;-30
2021/07/12 00:21:47;;;;;;;12.55;11.25;;;19.60;99.90;;;;;;4992420;28;20025;-31
2021/07/12 00:24:13;;;;;;;12.13;10.98;;;19.70;99.90;;;;;;4993024;28;20031;-30
2021/07/12 00:26:38;;;;;;;12.38;10.90;;;19.70;99.90;;;;;;4992313;28;20041;-31
2021/07/12 00:29:04;;;;;;;11.85;10.75;;;19.60;99.90;;;;;;4991345;28;20398;-31
2021/07/12 00:31:29;;;;;;;11.88;10.68;;;19.60;99.90;;;;;;4992608;28;20030;-31
2021/07/12 00:33:55;;;;;;;12.43;11.13;;;19.60;99.90;;;;;;4991951;28;20057;-31
2021/07/12 00:36:20;;;;;;;11.45;10.25;;;19.60;99.90;;;;;;4992118;28;20038;-30
2021/07/12 00:38:46;;;;;;;11.43;9.90;;;19.60;99.90;;;;;;4992175;28;20022;-31
2021/07/12 00:41:11;;;;;;;10.95;9.88;;;19.60;99.90;;;;;;4992088;28;20465;-31
2021/07/12 00:43:38;;;;;;;11.35;10.15;;;19.60;99.90;;;;;;4992472;28;20030;-31
2021/07/12 00:46:08;;;;;;;11.38;10.23;;;19.50;99.90;;;;;;4992006;28;20018;-31
2021/07/12 00:48:34;;;;;;;11.65;10.50;;;19.50;99.90;;;;;;4991902;28;20022;-31
2021/07/12 00:50:59;;;;;;;12.02;10.82;;;19.50;99.90;;;;;;4990782;28;20066;-31
2021/07/12 00:53:25;;;;;;;10.85;9.77;;;19.50;99.90;;;;;;4991783;28;20054;-31
2021/07/12 00:55:51;;;;;;;11.05;9.95;;;19.50;99.90;;;;;;4991589;28;20368;-31
2021/07/12 00:58:22;;;;;;;11.70;9.98;;;19.50;99.90;;;;;;4991935;28;20414;-31
2021/07/12 01:00:50;;;;;;;10.57;9.52;;;19.40;99.90;;;;;;4991625;28;20058;-31
2021/07/12 01:03:17;;;;;;;10.82;9.82;;;19.40;99.90;;;;;;4991681;28;20014;-31
2021/07/12 01:05:42;;;;;;;11.55;10.35;;;19.40;99.90;;;;;;4991328;28;20390;-31
2021/07/12 01:08:08;;;;;;;14.23;12.75;;;19.40;99.90;;;;;;4989735;28;20023;-31
2021/07/12 01:10:35;;;;;;;13.68;12.27;;;19.40;99.90;;;;;;4991506;28;20470;-31
2021/07/12 01:13:19;;;;;;;15.77;14.00;;;19.40;99.90;;;;;;4991118;28;20453;-31
2021/07/12 01:16:07;;;;;;;13.73;12.30;;;19.40;99.90;;;;;;4989519;28;20462;-31
2021/07/12 01:18:41;;;;;;;13.73;11.95;;;19.40;99.90;;;;;;4980164;28;20034;-31
2021/07/12 01:21:40;;;;;;;13.35;11.95;;;19.40;99.90;;;;;;4991917;28;20117;-31
2021/07/12 01:24:17;;;;;;;13.00;11.80;;;19.40;99.90;;;;;;4991196;28;20531;-31
2021/07/12 01:27:13;;;;;;;11.45;10.35;;;19.40;99.90;;;;;;4991364;28;20033;-31
2021/07/12 01:29:59;;;;;;;12.38;11.18;;;19.30;99.90;;;;;;4991743;28;20080;-31
2021/07/12 01:32:55;;;;;;;13.25;10.85;;;19.20;99.90;;;;;;4954920;28;20042;-31
2021/07/12 01:35:57;;;;;;;12.20;10.95;;;19.10;99.90;;;;;;4991023;28;20026;-31
2021/07/12 01:38:43;;;;;;;12.18;10.85;;;19.10;99.90;;;;;;4972189;28;20089;-29
2021/07/12 01:41:51;;;;;;;12.35;11.02;;;19.00;99.90;;;;;;4991036;28;20023;-31
2021/07/12 01:44:41;;;;;;;11.48;10.38;;;19.10;99.90;;;;;;4991127;28;20038;-31
2021/07/12 01:47:11;;;;;;;12.38;11.07;;;19.00;99.90;;;;;;4981707;28;20113;-31
2021/07/12 01:49:53;;;;;;;12.10;10.90;;;19.00;99.90;;;;;;4991815;28;20477;-31
2021/07/12 01:52:48;;;;;;;11.50;10.40;;;19.00;99.90;;;;;;4981441;28;20026;-31
2021/07/12 01:55:38;;;;;;;12.35;11.05;;;18.90;99.90;;;;;;4990602;28;20359;-31
2021/07/12 01:58:12;;;;;;;11.60;10.40;;;18.90;99.90;;;;;;4990667;28;20029;-31
2021/07/12 02:00:40;;;;;;;11.98;10.77;;;18.90;99.90;;;;;;4991191;28;20038;-30
2021/07/12 02:03:09;;;;;;;11.23;10.13;;;18.90;99.90;;;;;;4990906;28;20026;-31
2021/07/12 02:05:37;;;;;;;11.85;10.65;;;18.80;99.90;;;;;;4990548;28;20065;-29
2021/07/12 02:08:05;;;;;;;12.57;11.27;;;18.80;99.90;;;;;;4990889;28;20101;-30
2021/07/12 02:10:32;;;;;;;12.40;11.20;;;18.80;99.90;;;;;;4990999;28;20018;-30
2021/07/12 02:12:59;;;;;;;11.70;10.60;;;18.80;99.90;;;;;;4989281;28;20580;-30
2021/07/12 02:15:29;;;;;;;12.13;10.88;;;18.80;99.90;;;;;;4991213;28;20031;-30
2021/07/12 02:17:56;;;;;;;12.38;11.15;;;18.70;99.90;;;;;;4989755;28;20105;-30
2021/07/12 02:20:25;;;;;;;11.85;10.75;;;18.70;99.90;;;;;;4990891;28;20030;-30
2021/07/12 02:22:53;;;;;;;12.07;10.77;;;18.70;99.90;;;;;;4990616;28;20031;-30
2021/07/12 02:25:20;;;;;;;12.20;11.00;;;18.70;99.90;;;;;;4990990;28;20043;-30
2021/07/12 02:27:47;;;;;;;11.88;10.52;;;18.70;99.90;;;;;;4990217;28;20134;-30
2021/07/12 02:30:15;;;;;;;11.60;10.40;;;18.70;99.90;;;;;;4990274;28;20413;-30
2021/07/12 02:32:42;;;;;;;12.32;11.05;;;18.70;99.90;;;;;;4990182;28;20065;-29
2021/07/12 02:35:11;;;;;;;13.38;11.82;;;18.70;99.90;;;;;;4990358;28;20030;-30
2021/07/12 02:37:40;;;;;;;12.35;10.95;;;18.70;99.90;;;;;;4990381;28;20493;-30
2021/07/12 02:40:09;;;;;;;13.23;11.43;;;18.60;99.90;;;;;;4970938;28;20553;-30
2021/07/12 02:42:37;;;;;;;13.27;11.98;;;18.60;99.90;;;;;;4984609;28;20037;-29
2021/07/12 02:45:04;;;;;;;14.10;12.57;;;18.60;99.90;;;;;;4989702;28;20030;-29
2021/07/12 02:47:29;;;;;;;13.32;11.93;;;18.60;99.90;;;;;;4990136;28;20022;-29
2021/07/12 02:49:55;;;;;;;12.98;11.73;;;18.60;99.90;;;;;;4989564;28;20037;-30
2021/07/12 02:52:29;;;;;;;12.80;11.45;;;18.60;99.90;;;;;;4990726;28;20023;-29
2021/07/12 02:54:58;;;;;;;12.77;11.48;;;18.60;99.90;;;;;;4989189;28;20034;-29
2021/07/12 02:57:24;;;;;;;12.05;10.77;;;18.60;99.90;;;;;;4990244;28;20027;-29
2021/07/12 02:59:49;;;;;;;12.77;11.50;;;18.50;99.90;;;;;;4990429;28;20084;-30
2021/07/12 03:02:15;;;;;;;13.10;11.80;;;18.50;99.90;;;;;;4988891;28;20594;-30
2021/07/12 03:04:40;;;;;;;11.82;10.68;;;18.50;99.90;;;;;;4990393;28;20023;-29
2021/07/12 03:07:18;;;;;;;13.23;11.85;;;18.50;99.90;;;;;;4989336;28;20482;-30
2021/07/12 03:09:47;;;;;;;13.05;11.65;;;18.40;99.90;;;;;;4989526;28;20029;-30
2021/07/12 03:12:42;;;;;;;13.73;12.30;;;18.40;99.90;;;;;;4989549;28;20522;-30
2021/07/12 03:15:11;;;;;;;13.23;11.52;;;18.40;99.90;;;;;;4972507;28;20409;-30
2021/07/12 03:17:48;;;;;;;12.32;11.18;;;18.40;99.90;;;;;;4989019;28;20088;-30
2021/07/12 03:20:15;;;;;;;12.35;11.15;;;18.30;99.90;;;;;;4979816;28;20023;-30
2021/07/12 03:22:42;;;;;;;14.77;13.18;;;18.30;99.90;;;;;;4989092;28;20057;-30
2021/07/12 03:25:10;;;;;;;13.23;11.65;;;18.30;99.90;;;;;;4989107;28;20030;-30
2021/07/12 03:27:36;;;;;;;14.18;12.77;;;18.30;99.90;;;;;;4989825;28;20113;-30
2021/07/12 03:30:05;;;;;;;13.95;12.50;;;18.30;99.90;;;;;;4989050;28;20023;-30
2021/07/12 03:32:32;;;;;;;14.85;13.35;;;18.30;99.90;;;;;;4996272;28;20389;-30
2021/07/12 03:34:58;;;;;;;14.20;12.70;;;18.30;99.90;;;;;;4995901;28;20018;-31
2021/07/12 03:37:25;;;;;;;13.45;12.05;;;18.20;99.90;;;;;;4996256;28;20408;-30
2021/07/12 03:39:51;;;;;;;13.80;12.05;;;18.20;99.90;;;;;;4995736;28;20023;-31
2021/07/12 03:42:19;;;;;;;12.95;11.50;;;18.20;99.90;;;;;;4997038;28;20472;-30
2021/07/12 03:44:45;;;;;;;13.95;12.55;;;18.20;99.90;;;;;;4994925;28;20030;-30
2021/07/12 03:47:30;;;;;;;13.15;11.85;;;18.20;99.90;;;;;;4996244;28;20476;-30
2021/07/12 03:50:11;;;;;;;13.50;12.10;;;18.20;99.90;;;;;;4995483;28;20022;-30
2021/07/12 03:52:52;;;;;;;13.25;11.85;;;18.20;99.90;;;;;;4982940;28;20022;-30
2021/07/12 03:55:21;;;;;;;13.13;11.75;;;18.30;99.90;;;;;;4995322;28;20547;-30
2021/07/12 03:57:47;;;;;;;14.77;13.20;;;18.20;99.90;;;;;;4995713;28;20026;-30
2021/07/12 04:00:16;;;;;;;15.32;13.32;;;18.30;99.90;;;;;;4995144;28;20393;-30
2021/07/12 04:02:43;;;;;;;15.20;13.65;;;18.30;99.90;;;;;;4995900;28;20369;-30
2021/07/12 04:05:09;;;;;;;15.85;14.25;;;18.30;99.90;;;;;;4995361;28;20038;-30
2021/07/12 04:07:36;;;;;;;15.90;14.27;;;18.30;99.90;;;;;;4996112;28;20501;-29
2021/07/12 04:10:05;;;;;;;14.45;12.90;;;18.30;99.90;;;;;;4995182;28;20041;-30
2021/07/12 04:12:31;;;;;;;16.23;14.52;;;18.30;99.90;;;;;;4995054;28;20513;-30
2021/07/12 04:14:58;;;;;;;16.33;14.63;;;18.30;99.90;;;;;;4995874;28;20018;-30
2021/07/12 04:17:23;;;;;;;16.30;14.60;;;18.40;99.90;;;;;;4996245;28;20026;-30
2021/07/12 04:19:50;;;;;;;15.88;14.25;;;18.40;99.90;;;;;;4994987;28;20077;-30
2021/07/12 04:22:16;;;;;;;16.85;14.80;;;18.40;99.90;;;;;;4996271;28;20041;-30
2021/07/12 04:24:41;;;;;;;15.27;13.70;;;18.50;99.90;;;;;;4995547;28;20027;-30
2021/07/12 04:27:07;;;;;;;15.93;14.32;;;18.50;99.90;;;;;;4993920;28;20676;-30
2021/07/12 04:29:35;;;;;;;16.70;15.00;;;18.50;99.90;;;;;;4995599;28;20533;-30
2021/07/12 04:32:01;;;;;;;16.13;14.30;;;18.60;99.90;;;;;;4995145;28;20018;-30
2021/07/12 04:34:28;;;;;;;15.23;13.70;;;18.60;99.90;;;;;;4995792;28;20410;-29
2021/07/12 04:36:54;;;;;;;15.95;14.25;;;18.70;99.90;;;;;;4995342;28;20065;-29
2021/07/12 04:39:20;;;;;;;16.10;14.40;;;18.80;99.90;;;;;;4996086;28;20057;-30
2021/07/12 04:41:46;;;;;;;18.08;15.95;;;18.80;99.90;;;;;;4994621;28;20030;-29
2021/07/12 04:44:11;;;;;;;18.73;16.73;;;18.90;99.90;;;;;;4992959;28;20548;-30
2021/07/12 04:46:37;;;;;;;17.02;15.32;;;19.00;99.90;;;;;;4992347;28;20351;-30
2021/07/12 04:49:03;;;;;;;17.13;15.30;;;19.00;99.90;;;;;;4991415;28;20455;-29
2021/07/12 04:51:31;;;;;;;18.10;16.25;;;19.10;99.90;;;;;;4993232;28;20038;-30
2021/07/12 04:53:57;;;;;;;16.90;15.20;;;19.20;99.90;;;;;;4992161;28;20037;-30
2021/07/12 04:56:23;;;;;;;16.92;15.23;;;19.20;99.90;;;;;;4992046;28;20374;-29
2021/07/12 04:58:49;;;;;;;17.92;15.20;;;19.20;99.90;;;;;;4991839;28;20498;-30
2021/07/12 05:01:16;;;;;;;18.92;17.00;;;19.30;99.90;;;;;;4991941;28;20026;-30
2021/07/12 05:03:43;;;;;;;18.58;16.65;;;19.30;99.90;;;;;;4991717;28;20041;-30
2021/07/12 05:06:08;;;;;;;18.58;16.60;;;19.30;99.90;;;;;;4991669;28;20458;-30
2021/07/12 05:08:34;;;;;;;18.15;15.65;;;19.30;99.90;;;;;;4992080;28;20029;-30
2021/07/12 05:11:00;;;;;;;17.48;15.32;;;19.40;99.90;;;;;;4991393;28;20031;-30
2021/07/12 05:13:28;;;;;;;17.80;15.90;;;19.40;99.90;;;;;;4992011;28;20073;-29
2021/07/12 05:15:54;;;;;;;18.48;16.65;;;19.40;99.90;;;;;;4991299;28;20029;-30
2021/07/12 05:18:19;;;;;;;18.02;16.13;;;19.50;99.90;;;;;;4991881;28;20026;-29
2021/07/12 05:20:45;;;;;;;17.25;15.45;;;19.50;99.90;;;;;;4991744;28;20437;-30
2021/07/12 05:23:10;;;;;;;17.20;15.40;;;19.60;99.90;;;;;;4991072;28;20074;-30
2021/07/12 05:25:36;;;;;;;16.42;14.73;;;19.60;99.90;;;;;;4972619;28;20019;-29
2021/07/12 05:28:03;;;;;;;17.10;14.57;;;19.70;99.90;;;;;;4984255;28;20018;-29
2021/07/12 05:30:29;;;;;;;15.85;14.35;;;19.70;99.90;;;;;;4991450;28;20038;-29
2021/07/12 05:32:54;;;;;;;14.40;13.00;;;19.80;99.90;;;;;;4991224;28;20026;-29
2021/07/12 05:35:20;;;;;;;15.00;13.50;;;19.90;99.90;;;;;;4991728;28;20474;-30
2021/07/12 05:37:48;;;;;;;16.05;14.50;;;19.90;99.90;;;;;;4990806;28;20030;-30
2021/07/12 05:40:14;;;;;;;16.40;14.80;;;20.00;99.90;;;;;;4991496;28;20470;-30
2021/07/12 05:42:40;;;;;;;17.73;15.90;;;20.10;99.90;;;;;;4991184;28;20017;-30
2021/07/12 05:45:06;;;;;;;17.73;15.95;;;20.10;99.90;;;;;;4990653;28;20026;-30
2021/07/12 05:47:32;;;;;;;18.77;16.73;;;20.10;99.90;;;;;;4991474;28;20010;-30
2021/07/12 05:49:57;;;;;;;19.27;17.33;;;20.10;99.90;;;;;;4991187;28;20045;-30
2021/07/12 05:52:23;;;;;;;19.77;17.77;;;20.10;99.90;;;;;;4990491;28;20489;-30
2021/07/12 05:54:51;;;;;;;19.55;16.88;;;20.10;99.90;;;;;;4990718;28;20473;-30
2021/07/12 05:57:17;;;;;;;19.50;17.40;;;20.10;99.90;;;;;;4990844;28;20081;-30
2021/07/12 05:59:42;;;;;;;18.13;16.17;;;20.20;99.90;;;;;;4989760;28;20027;-31
2021/07/12 06:02:08;;;;;;;16.08;14.48;;;20.20;99.90;;;;;;4990675;28;20076;-34
2021/07/12 06:04:34;;;;;;;17.55;15.73;;;20.20;99.90;;;;;;4991096;28;20355;-34
2021/07/12 06:06:59;;;;;;;17.15;15.40;;;20.20;99.90;;;;;;4990480;28;20129;-34
2021/07/12 06:09:25;;;;;;;15.75;14.15;;;20.30;99.90;;;;;;4991276;28;20053;-34
2021/07/12 06:11:51;;;;;;;14.77;13.10;;;20.30;99.90;;;;;;4989506;28;20026;-34
2021/07/12 06:14:16;;;;;;;16.40;14.70;;;20.40;99.90;;;;;;4990062;28;20490;-34
2021/07/12 06:16:42;;;;;;;15.57;14.10;;;20.50;99.90;;;;;;4991311;28;20030;-34
2021/07/12 06:19:08;;;;;;;15.65;14.15;;;20.50;99.90;;;;;;4989921;28;20224;-34
2021/07/12 06:21:34;;;;;;;15.02;13.45;;;20.60;99.90;;;;;;4990971;28;20050;-34
2021/07/12 06:24:01;;;;;;;15.43;13.88;;;20.70;99.90;;;;;;4990379;28;20034;-34
2021/07/12 06:26:26;;;;;;;14.52;13.02;;;20.70;99.90;;;;;;4990734;28;20037;-34
2021/07/12 06:28:52;;;;;;;14.63;13.13;;;20.70;99.90;;;;;;4990122;28;20363;-34
2021/07/12 06:31:17;;;;;;;14.52;13.02;;;20.80;99.90;;;;;;4990739;28;20021;-33
2021/07/12 06:33:43;;;;;;;13.48;12.18;;;20.80;99.90;;;;;;4990160;28;20392;-34
2021/07/12 06:36:09;;;;;;;15.13;13.23;;;20.90;99.90;;;;;;4990007;28;20540;-33
2021/07/12 06:38:35;;;;;;;15.80;14.20;;;20.90;99.90;;;;;;4991228;28;20033;-34
2021/07/12 06:41:01;;;;;;;14.80;13.30;;;21.00;99.90;;;;;;4989541;28;20470;-33
2021/07/12 06:43:26;;;;;;;15.13;13.73;;;21.00;99.90;;;;;;4990437;28;20093;-34
2021/07/12 06:45:56;;;;;;;15.05;13.55;;;21.00;99.90;;;;;;4990058;28;20480;-31
2021/07/12 06:48:21;;;;;;;15.77;14.20;;;21.10;99.90;;;;;;4989844;28;20030;-31
2021/07/12 06:50:47;;;;;;;13.75;12.10;;;21.10;99.90;;;;;;4990314;28;20462;-31
2021/07/12 06:53:12;;;;;;;13.68;12.38;;;21.20;99.90;;;;;;4990138;28;20729;-31
2021/07/12 06:55:38;;;;;;;14.27;12.77;;;21.40;99.90;;;;;;4989799;28;20392;-30
2021/07/12 06:58:04;;;;;;;14.57;13.07;;;21.60;99.90;;;;;;4990389;28;20113;-31
2021/07/12 07:00:33;;;;;;;14.35;12.90;;;21.70;99.90;;;;;;4989841;28;20087;-30
2021/07/12 07:03:10;;;;;;;12.98;11.68;;;21.80;99.90;;;;;;4988693;28;20037;-30
2021/07/12 07:05:48;;;;;;;13.77;12.43;;;21.90;99.90;;;;;;4989627;28;20026;-32
2021/07/12 07:08:17;;;;;;;13.10;11.85;;;22.00;99.90;;;;;;4989712;28;20089;-30
2021/07/12 07:10:43;;;;;;;12.18;11.05;;;22.00;99.90;;;;;;4989227;28;20537;-31
2021/07/12 07:13:08;;;;;;;12.00;10.85;;;22.00;99.90;;;;;;4989575;28;20046;-31
2021/07/12 07:15:34;;;;;;;13.52;12.13;;;22.00;99.90;;;;;;4989701;28;20081;-31
2021/07/12 07:17:59;;;;;;;12.65;11.48;;;22.00;99.90;;;;;;4988911;28;20030;-29
2021/07/12 07:20:26;;;;;;;8.65;7.85;;;21.90;99.90;;;;;;4990091;28;20050;-31
2021/07/12 07:22:51;;;;;;;11.45;10.30;;;21.90;99.90;;;;;;4988820;28;20374;-31
2021/07/12 07:25:17;;;;;;;11.35;10.32;;;21.90;99.90;;;;;;4989329;28;20019;-30
2021/07/12 07:27:43;;;;;;;12.55;11.35;;;21.90;99.90;;;;;;4989603;28;20863;-30
2021/07/12 07:30:10;;;;;;;13.70;12.30;;;21.90;99.90;;;;;;4989315;28;20038;-30
2021/07/12 07:32:36;;;;;;;11.30;10.20;;;21.90;99.90;;;;;;4989763;28;20019;-33
2021/07/12 07:35:03;;;;;;;9.35;8.48;;;21.90;99.90;;;;;;4989728;28;20482;-34
2021/07/12 07:37:28;;;;;;;9.60;8.70;;;22.00;99.90;;;;;;4988685;28;20137;-33
2021/07/12 07:39:54;;;;;;;11.80;10.70;;;22.00;99.90;;;;;;4989016;28;20105;-34
2021/07/12 07:42:19;;;;;;;12.05;10.93;;;22.00;99.90;;;;;;4989821;28;20025;-33
2021/07/12 07:44:45;;;;;;;11.38;10.38;;;22.10;99.90;;;;;;4989108;28;20129;-33
2021/07/12 07:47:11;;;;;;;12.15;11.05;;;22.10;99.90;;;;;;4989549;28;20528;-33
2021/07/12 07:49:36;;;;;;;9.07;8.07;;;22.20;99.80;;;;;;4989969;28;20037;-33
2021/07/12 07:52:03;;;;;;;11.90;10.77;;;22.20;99.80;;;;;;4988133;28;20027;-34
2021/07/12 07:54:28;;;;;;;8.57;7.78;;;22.20;99.70;;;;;;4989570;28;20026;-33
2021/07/12 07:56:54;;;;;;;10.75;8.65;;;22.20;99.70;;;;;;4988739;28;20105;-34
2021/07/12 07:59:20;;;;;;;10.10;9.10;;;22.20;99.60;;;;;;4989563;28;20027;-33
2021/07/12 08:01:45;;;;;;;9.70;8.50;;;22.30;99.80;;;;;;4989260;28;20040;-34
2021/07/12 08:04:11;;;;;;;10.10;9.20;;;22.30;99.50;;;;;;4988746;28;20034;-33
2021/07/12 08:06:37;;;;;;;9.50;8.60;;;22.30;99.50;;;;;;4989858;28;20485;-33
2021/07/12 08:09:04;;;;;;;8.77;7.95;;;22.40;99.50;;;;;;4989065;28;20054;-33
2021/07/12 08:11:31;;;;;;;8.75;7.95;;;22.40;99.40;;;;;;4989562;28;20045;-33
2021/07/12 08:13:57;;;;;;;7.47;6.78;;;22.50;99.30;;;;;;4988299;28;20046;-33
2021/07/12 08:16:23;;;;;;;9.02;8.23;;;22.50;99.20;;;;;;4989671;28;20037;-33
2021/07/12 08:18:48;;;;;;;9.07;8.18;;;22.60;99.00;;;;;;4991614;28;20054;-33
2021/07/12 08:21:14;;;;;;;7.93;7.20;;;22.70;98.80;;;;;;4993288;28;20109;-33
2021/07/12 08:23:41;;;;;;;8.55;7.75;;;22.80;98.70;;;;;;4993066;28;20454;-34
2021/07/12 08:26:08;;;;;;;5.82;5.32;;;22.90;98.50;;;;;;4992276;28;20022;-33
2021/07/12 08:28:34;;;;;;;8.68;7.88;;;22.90;98.40;;;;;;4993406;28;20018;-33
2021/07/12 08:31:00;;;;;;;6.90;6.30;;;22.90;98.30;;;;;;4992653;28;20536;-34
2021/07/12 08:33:25;;;;;;;6.00;5.47;;;22.90;98.20;;;;;;4992530;28;20045;-33
2021/07/12 08:35:51;;;;;;;6.97;6.38;;;23.00;98.20;;;;;;4992751;28;20033;-33
2021/07/12 08:38:16;;;;;;;6.38;5.68;;;23.00;98.00;;;;;;4992080;28;20038;-33
2021/07/12 08:40:42;;;;;;;7.85;5.68;;;23.10;97.90;;;;;;4992336;28;20073;-33
2021/07/12 08:43:08;;;;;;;5.75;5.05;;;23.10;97.90;;;;;;4992725;28;20109;-33
2021/07/12 08:45:34;;;;;;;5.25;4.80;;;23.10;97.90;;;;;;4992870;28;20049;-33
2021/07/12 08:48:01;;;;;;;5.15;4.63;;;23.00;97.80;;;;;;4991860;28;20065;-33
2021/07/12 08:50:27;;;;;;;4.47;3.85;;;23.00;97.80;;;;;;4992491;28;20441;-33
2021/07/12 08:52:53;;;;;;;5.63;5.03;;;23.00;97.80;;;;;;4992844;28;20501;-33
2021/07/12 08:55:20;;;;;;;4.95;4.55;;;23.00;97.70;;;;;;4992374;28;20101;-33
2021/07/12 08:58:19;;;;;;;6.18;5.30;;;23.10;97.50;;;;;;4992774;28;20049;-33
2021/07/12 09:01:01;;;;;;;6.47;5.18;;;23.10;97.50;;;;;;4980203;28;20049;-33
2021/07/12 09:03:32;;;;;;;7.32;5.40;;;23.10;97.40;;;;;;4992786;28;20474;-33
2021/07/12 09:06:03;;;;;;;5.45;4.95;;;23.10;97.40;;;;;;4991873;28;20362;-33
2021/07/12 09:08:47;;;;;;;5.10;4.60;;;23.10;97.40;;;;;;4992021;28;20046;-33
2021/07/12 09:11:12;;;;;;;5.53;5.03;;;23.00;97.30;;;;;;4992064;28;20026;-33
2021/07/12 09:13:43;;;;;;;7.40;5.80;;;23.10;97.30;;;;;;4992162;28;20153;-33
2021/07/12 09:16:31;;;;;;;5.05;4.47;;;23.10;97.20;;;;;;4991395;28;20022;-33
2021/07/12 09:19:22;;;;;;;13.82;12.40;;;23.10;97.00;;;;;;4991742;28;20030;-33
2021/07/12 09:21:50;;;;;;;7.47;6.70;;;23.20;96.90;;;;;;4982873;28;20464;-33
2021/07/12 09:24:33;;;;;;;7.93;5.75;;;23.20;96.90;;;;;;4991744;28;20039;-33
2021/07/12 09:27:09;;;;;;;5.78;5.15;;;23.30;96.80;;;;;;4988200;28;20034;-33
2021/07/12 09:29:42;;;;;;;5.50;5.00;;;23.40;96.70;;;;;;4990635;28;20102;-33
2021/07/12 09:32:11;;;;;;;5.22;4.80;;;23.50;96.50;;;;;;4988678;28;20038;-33
2021/07/12 09:34:37;;;;;;;5.28;4.78;;;23.50;96.30;;;;;;4992013;28;20038;-33
2021/07/12 09:37:04;;;;;;;4.90;4.50;;;23.60;96.20;;;;;;4990456;28;20019;-33
2021/07/12 09:39:50;;;;;;;5.30;4.60;;;23.70;96.10;;;;;;4992144;28;20092;-33
2021/07/12 09:42:22;;;;;;;4.55;4.15;;;23.80;96.00;;;;;;4991258;28;20485;-33
2021/07/12 09:44:50;;;;;;;5.18;4.68;;;24.00;95.90;;;;;;4991137;28;20474;-33
2021/07/12 09:47:19;;;;;;;5.95;5.22;;;24.10;95.60;;;;;;4991353;28;20049;-41
2021/07/12 09:49:46;;;;;;;4.50;4.10;;;24.20;95.30;;;;;;4990792;28;20030;-41
2021/07/12 09:52:17;;;;;;;4.13;3.80;;;24.20;95.20;;;;;;4991177;28;20106;-42
2021/07/12 09:54:45;;;;;;;4.17;3.60;;;24.20;95.20;;;;;;4972020;28;20566;-45
2021/07/12 09:57:22;;;;;;;4.18;3.78;;;24.30;95.00;;;;;;4986328;28;20266;-45
2021/07/12 10:00:06;;;;;;;4.40;4.00;;;24.40;94.80;;;;;;4972130;28;20029;-42
2021/07/12 10:02:34;;;;;;;4.38;3.97;;;24.50;94.80;;;;;;4987637;28;20443;-41
2021/07/12 10:05:03;;;;;;;5.05;4.55;;;24.60;94.70;;;;;;4990293;28;20040;-41
2021/07/12 10:07:30;;;;;;;4.30;3.90;;;24.60;94.50;;;;;;4991469;28;20088;-41
2021/07/12 10:09:56;;;;;;;5.43;4.93;;;24.70;94.50;;;;;;4990811;28;20038;-41
2021/07/12 10:12:22;;;;;;;5.20;4.60;;;24.80;94.20;;;;;;4989972;28;20043;-41
2021/07/12 10:14:51;;;;;;;4.18;3.85;;;24.90;94.10;;;;;;4991212;28;20358;-40
2021/07/12 10:17:18;;;;;;;6.88;6.25;;;25.00;94.10;;;;;;4990519;28;20018;-42
2021/07/12 10:19:45;;;;;;;6.47;5.78;;;25.00;93.80;;;;;;4990173;28;20417;-41
2021/07/12 10:22:12;;;;;;;5.57;4.80;;;25.00;93.60;;;;;;4990857;28;20106;-47
2021/07/12 10:24:45;;;;;;;4.60;4.18;;;25.00;93.60;;;;;;4990813;28;20120;-47
2021/07/12 10:27:29;;;;;;;4.57;3.92;;;25.10;93.70;;;;;;4990030;28;20080;-46
2021/07/12 10:29:57;;;;;;;6.55;5.90;;;25.20;93.50;;;;;;4990740;28;20037;-46
2021/07/12 10:32:24;;;;;;;6.60;5.97;;;25.30;93.30;;;;;;4990019;28;20077;-43
2021/07/12 10:34:55;;;;;;;7.00;5.93;;;25.30;93.00;;;;;;4988805;28;20447;-42
2021/07/12 10:37:32;;;;;;;6.20;5.70;;;25.30;92.80;;;;;;4989745;28;20018;-42
2021/07/12 10:40:19;;;;;;;5.40;4.90;;;25.20;92.70;;;;;;4980552;28;20118;-45
2021/07/12 10:42:51;;;;;;;5.57;5.00;;;25.20;92.90;;;;;;4990074;28;20018;-44
2021/07/12 10:45:29;;;;;;;4.90;4.38;;;25.20;92.90;;;;;;4990294;28;20426;-45
2021/07/12 10:47:57;;;;;;;5.53;4.85;;;25.20;93.00;;;;;;4989859;28;20425;-45
2021/07/12 10:51:14;;;;;;;4.70;4.30;;;25.20;93.00;;;;;;4988925;28;20026;-45
2021/07/12 10:53:40;;;;;;;5.10;4.60;;;25.20;93.00;;;;;;4989594;28;20061;-43
2021/07/12 10:56:09;;;;;;;7.03;6.43;;;25.20;92.80;;;;;;4990194;28;20061;-46
2021/07/12 10:58:37;;;;;;;7.32;5.90;;;25.30;92.50;;;;;;4990608;28;20428;-45
2021/07/12 11:01:04;;;;;;;5.20;4.70;;;25.30;92.30;;;;;;4989253;28;20033;-44
2021/07/12 11:03:49;;;;;;;4.70;4.25;;;25.30;92.30;;;;;;4989933;28;20559;-45
2021/07/12 11:06:19;;;;;;;5.07;4.60;;;25.40;92.20;;;;;;4990219;28;20055;-44
2021/07/12 11:08:50;;;;;;;4.70;4.30;;;25.50;92.10;;;;;;4989309;28;20102;-45
2021/07/12 11:11:18;;;;;;;5.60;4.95;;;25.70;92.00;;;;;;4990071;28;20022;-45
2021/07/12 11:14:00;;;;;;;5.53;5.03;;;25.80;91.80;;;;;;4989638;28;20050;-46
2021/07/12 11:16:47;;;;;;;4.50;4.13;;;25.90;91.50;;;;;;4989493;28;20358;-45
2021/07/12 11:19:32;;;;;;;4.30;3.90;;;25.90;91.60;;;;;;4989328;28;20484;-45
2021/07/12 11:22:13;;;;;;;6.10;5.53;;;25.90;91.60;;;;;;4989369;28;20022;-45
2021/07/12 11:24:57;;;;;;;6.50;5.88;;;26.00;91.50;;;;;;4989832;28;20417;-45
2021/07/12 11:27:41;;;;;;;5.50;4.95;;;26.10;91.20;;;;;;4989954;28;20038;-44
2021/07/12 11:30:30;;;;;;;5.35;4.85;;;26.10;91.20;;;;;;4989128;28;20015;-45
2021/07/12 11:32:57;;;;;;;6.00;5.40;;;26.10;91.10;;;;;;4925565;28;20117;-46
2021/07/12 11:35:23;;;;;;;4.20;3.88;;;26.10;91.20;;;;;;4984460;28;20030;-46
2021/07/12 11:37:49;;;;;;;5.07;4.65;;;26.20;91.20;;;;;;4989285;28;20065;-45
2021/07/12 11:40:15;;;;;;;5.20;4.70;;;26.30;91.20;;;;;;4988571;28;20121;-43
2021/07/12 11:42:42;;;;;;;4.50;4.10;;;26.40;91.10;;;;;;4989266;28;20172;-42
2021/07/12 11:45:19;;;;;;;5.85;5.35;;;26.50;91.30;;;;;;4989065;28;20041;-42
2021/07/12 11:47:45;;;;;;;7.95;7.15;;;26.50;90.70;;;;;;4989445;28;20500;-40
2021/07/12 11:50:23;;;;;;;7.57;6.40;;;26.70;89.90;;;;;;4988655;28;20409;-41
2021/07/12 11:52:54;;;;;;;6.18;5.68;;;26.70;88.90;;;;;;4991246;28;20022;-41
2021/07/12 11:55:25;;;;;;;5.97;5.50;;;26.70;88.50;;;;;;4993439;28;20157;-41
2021/07/12 11:57:56;;;;;;;5.03;4.53;;;26.60;88.30;;;;;;4993048;28;20042;-46
2021/07/12 12:00:33;;;;;;;5.45;4.45;;;26.70;88.60;;;;;;4993608;28;20025;-46
2021/07/12 12:03:03;;;;;;;5.25;4.75;;;26.80;88.90;;;;;;4993254;28;20179;-46
2021/07/12 12:05:32;;;;;;;5.43;4.97;;;26.90;88.90;;;;;;4992823;28;20056;-44
2021/07/12 12:07:58;;;;;;;4.93;4.53;;;27.00;88.80;;;;;;4993071;28;20037;-46
2021/07/12 12:10:39;;;;;;;5.30;4.80;;;27.00;88.60;;;;;;4992683;28;20057;-44
2021/07/12 12:13:16;;;;;;;7.15;6.32;;;27.20;88.60;;;;;;4983276;28;20137;-43
2021/07/12 12:15:53;;;;;;;5.47;4.97;;;27.20;87.30;;;;;;4992977;28;20470;-43
2021/07/12 12:18:27;;;;;;;4.63;4.30;;;27.10;87.60;;;;;;4992954;28;20022;-47
2021/07/12 12:20:55;;;;;;;3.97;3.45;;;27.10;87.90;;;;;;4993020;28;20109;-47
2021/07/12 12:23:23;;;;;;;4.88;4.47;;;27.20;88.30;;;;;;4992351;28;20022;-44
2021/07/12 12:26:03;;;;;;;4.97;4.57;;;27.20;88.40;;;;;;4992604;28;20026;-44
2021/07/12 12:28:58;;;;;;;5.47;4.95;;;27.30;88.30;;;;;;4982749;28;20053;-45
2021/07/12 12:31:27;;;;;;;4.97;4.57;;;27.30;87.90;;;;;;4992399;28;20033;-45
2021/07/12 12:34:07;;;;;;;6.70;6.00;;;27.30;87.90;;;;;;4992107;28;20053;-45
2021/07/12 12:36:35;;;;;;;6.07;5.47;;;27.20;86.80;;;;;;4992748;28;20022;-43
2021/07/12 12:39:06;;;;;;;4.93;4.53;;;27.00;86.50;;;;;;4992071;28;20030;-44
2021/07/12 12:41:36;;;;;;;5.35;4.85;;;27.00;87.60;;;;;;4992555;28;20015;-46
2021/07/12 12:44:07;;;;;;;5.50;5.00;;;26.90;87.50;;;;;;4992128;28;20052;-44
2021/07/12 12:46:34;;;;;;;4.85;4.45;;;26.80;87.50;;;;;;4992294;28;20010;-45
2021/07/12 12:49:15;;;;;;;4.53;4.20;;;26.80;87.80;;;;;;4992497;28;20036;-43
2021/07/12 12:51:48;;;;;;;4.22;3.83;;;26.80;88.10;;;;;;4992415;28;20034;-42